sensor_id;sensor_type;location;lat;lon;timestamp;P1;durP1;ratioP1;P2;durP2;ratioP2
5173;SDS011;2606;50.934;6.934;2022-09-29T00:00:09;3.00;;;2.07;;
5173;SDS011;2606;50.934;6.934;2022-09-29T00:02:35;3.00;;;2.20;;
5173;SDS011;2606;50.934;6.934;2022-09-29T00:05:01;3.27;;;2.17;;
5173;SDS011;2606;50.934;6.934;2022-09-29T00:07:29;3.67;;;1.90;;
5173;SDS011;2606;50.934;6.934;2022-09-29T00:09:56;3.00;;;2.37;;
5173;SDS011;2606;50.934;6.934;2022-09-29T00:12:22;2.20;;;1.80;;
5173;SDS011;2606;50.934;6.934;2022-09-29T00:14:48;2.20;;;1.90;;
5173;SDS011;2606;50.934;6.934;2022-09-29T00:17:13;2.47;;;2.20;;
5173;SDS011;2606;50.934;6.934;2022-09-29T00:19:39;6.37;;;2.13;;
5173;SDS011;2606;50.934;6.934;2022-09-29T00:22:05;2.67;;;2.47;;
5173;SDS011;2606;50.934;6.934;2022-09-29T00:24:30;5.50;;;2.80;;
5173;SDS011;2606;50.934;6.934;2022-09-29T00:26:56;9.70;;;2.70;;
5173;SDS011;2606;50.934;6.934;2022-09-29T00:29:22;2.40;;;2.07;;
5173;SDS011;2606;50.934;6.934;2022-09-29T00:31:47;2.80;;;2.60;;
5173;SDS011;2606;50.934;6.934;2022-09-29T00:34:13;2.43;;;2.23;;
5173;SDS011;2606;50.934;6.934;2022-09-29T00:36:38;3.23;;;2.33;;
5173;SDS011;2606;50.934;6.934;2022-09-29T00:39:05;7.00;;;2.00;;
5173;SDS011;2606;50.934;6.934;2022-09-29T00:41:32;5.60;;;2.23;;
5173;SDS011;2606;50.934;6.934;2022-09-29T00:44:00;2.30;;;2.10;;
5173;SDS011;2606;50.934;6.934;2022-09-29T00:46:31;2.60;;;2.40;;
5173;SDS011;2606;50.934;6.934;2022-09-29T00:48:58;2.80;;;2.40;;
5173;SDS011;2606;50.934;6.934;2022-09-29T00:51:31;2.73;;;2.53;;
5173;SDS011;2606;50.934;6.934;2022-09-29T00:53:58;2.53;;;2.23;;
5173;SDS011;2606;50.934;6.934;2022-09-29T00:56:25;2.60;;;2.40;;
5173;SDS011;2606;50.934;6.934;2022-09-29T00:58:55;6.53;;;2.90;;
5173;SDS011;2606;50.934;6.934;2022-09-29T01:01:27;3.40;;;2.60;;
5173;SDS011;2606;50.934;6.934;2022-09-29T01:03:55;4.27;;;2.60;;
5173;SDS011;2606;50.934;6.934;2022-09-29T01:06:30;2.97;;;2.60;;
5173;SDS011;2606;50.934;6.934;2022-09-29T01:09:08;4.83;;;3.20;;
5173;SDS011;2606;50.934;6.934;2022-09-29T01:11:37;3.13;;;2.70;;
5173;SDS011;2606;50.934;6.934;2022-09-29T01:14:04;4.23;;;2.80;;
5173;SDS011;2606;50.934;6.934;2022-09-29T01:16:33;3.20;;;2.50;;
5173;SDS011;2606;50.934;6.934;2022-09-29T01:19:00;3.27;;;2.70;;
5173;SDS011;2606;50.934;6.934;2022-09-29T01:36:02;3.10;;;2.37;;
5173;SDS011;2606;50.934;6.934;2022-09-29T01:38:50;3.83;;;2.50;;
5173;SDS011;2606;50.934;6.934;2022-09-29T01:44:25;3.67;;;2.63;;
5173;SDS011;2606;50.934;6.934;2022-09-29T01:46:58;4.40;;;2.90;;
5173;SDS011;2606;50.934;6.934;2022-09-29T01:49:30;3.40;;;2.87;;
5173;SDS011;2606;50.934;6.934;2022-09-29T01:52:02;4.83;;;3.07;;
5173;SDS011;2606;50.934;6.934;2022-09-29T01:54:34;8.33;;;2.87;;
5173;SDS011;2606;50.934;6.934;2022-09-29T01:57:12;4.03;;;2.73;;
5173;SDS011;2606;50.934;6.934;2022-09-29T01:59:50;4.90;;;2.30;;
5173;SDS011;2606;50.934;6.934;2022-09-29T02:02:29;3.30;;;2.80;;
5173;SDS011;2606;50.934;6.934;2022-09-29T02:05:01;4.90;;;3.60;;
5173;SDS011;2606;50.934;6.934;2022-09-29T02:07:33;3.10;;;2.73;;
5173;SDS011;2606;50.934;6.934;2022-09-29T02:10:04;4.10;;;3.30;;
5173;SDS011;2606;50.934;6.934;2022-09-29T02:12:35;6.20;;;2.83;;
5173;SDS011;2606;50.934;6.934;2022-09-29T02:15:03;3.30;;;2.87;;
5173;SDS011;2606;50.934;6.934;2022-09-29T02:17:35;4.30;;;3.13;;
5173;SDS011;2606;50.934;6.934;2022-09-29T02:20:03;3.60;;;2.77;;
5173;SDS011;2606;50.934;6.934;2022-09-29T02:22:29;3.20;;;2.90;;
5173;SDS011;2606;50.934;6.934;2022-09-29T02:24:56;3.57;;;3.27;;
5173;SDS011;2606;50.934;6.934;2022-09-29T02:27:23;3.80;;;3.00;;
5173;SDS011;2606;50.934;6.934;2022-09-29T02:29:51;4.27;;;2.67;;
5173;SDS011;2606;50.934;6.934;2022-09-29T02:32:17;5.50;;;3.63;;
5173;SDS011;2606;50.934;6.934;2022-09-29T02:34:44;4.20;;;2.63;;
5173;SDS011;2606;50.934;6.934;2022-09-29T02:42:42;3.90;;;3.10;;
5173;SDS011;2606;50.934;6.934;2022-09-29T02:50:28;4.57;;;3.30;;
5173;SDS011;2606;50.934;6.934;2022-09-29T02:53:17;5.60;;;3.67;;
5173;SDS011;2606;50.934;6.934;2022-09-29T02:56:14;7.50;;;3.33;;
5173;SDS011;2606;50.934;6.934;2022-09-29T03:02:14;4.80;;;3.50;;
5173;SDS011;2606;50.934;6.934;2022-09-29T03:04:40;4.60;;;3.43;;
5173;SDS011;2606;50.934;6.934;2022-09-29T03:07:06;8.73;;;3.70;;
5173;SDS011;2606;50.934;6.934;2022-09-29T03:09:31;6.90;;;4.07;;
5173;SDS011;2606;50.934;6.934;2022-09-29T03:11:57;5.17;;;3.60;;
5173;SDS011;2606;50.934;6.934;2022-09-29T03:14:23;4.13;;;3.33;;
5173;SDS011;2606;50.934;6.934;2022-09-29T03:16:48;7.27;;;3.77;;
5173;SDS011;2606;50.934;6.934;2022-09-29T03:19:14;4.80;;;3.37;;
5173;SDS011;2606;50.934;6.934;2022-09-29T03:21:39;5.83;;;4.37;;
5173;SDS011;2606;50.934;6.934;2022-09-29T03:24:05;5.50;;;3.70;;
5173;SDS011;2606;50.934;6.934;2022-09-29T03:26:30;6.67;;;3.93;;
5173;SDS011;2606;50.934;6.934;2022-09-29T03:28:57;5.23;;;3.60;;
5173;SDS011;2606;50.934;6.934;2022-09-29T03:31:22;4.17;;;3.77;;
5173;SDS011;2606;50.934;6.934;2022-09-29T03:33:48;7.37;;;3.73;;
5173;SDS011;2606;50.934;6.934;2022-09-29T03:36:17;5.87;;;3.70;;
5173;SDS011;2606;50.934;6.934;2022-09-29T03:38:43;4.80;;;3.80;;
5173;SDS011;2606;50.934;6.934;2022-09-29T03:41:11;6.60;;;4.70;;
5173;SDS011;2606;50.934;6.934;2022-09-29T03:43:36;7.40;;;4.30;;
5173;SDS011;2606;50.934;6.934;2022-09-29T03:46:02;6.77;;;3.83;;
5173;SDS011;2606;50.934;6.934;2022-09-29T03:48:29;5.00;;;4.00;;
5173;SDS011;2606;50.934;6.934;2022-09-29T03:50:55;5.20;;;3.70;;
5173;SDS011;2606;50.934;6.934;2022-09-29T03:53:21;6.93;;;4.10;;
5173;SDS011;2606;50.934;6.934;2022-09-29T03:55:47;5.20;;;4.50;;
5173;SDS011;2606;50.934;6.934;2022-09-29T03:58:14;6.17;;;4.10;;
5173;SDS011;2606;50.934;6.934;2022-09-29T04:00:40;5.33;;;4.10;;
5173;SDS011;2606;50.934;6.934;2022-09-29T04:03:06;6.77;;;4.20;;
5173;SDS011;2606;50.934;6.934;2022-09-29T04:05:32;7.57;;;4.93;;
5173;SDS011;2606;50.934;6.934;2022-09-29T04:08:05;4.67;;;3.57;;
5173;SDS011;2606;50.934;6.934;2022-09-29T04:10:35;7.70;;;4.10;;
5173;SDS011;2606;50.934;6.934;2022-09-29T04:13:01;5.70;;;4.60;;
5173;SDS011;2606;50.934;6.934;2022-09-29T04:15:27;4.20;;;3.70;;
5173;SDS011;2606;50.934;6.934;2022-09-29T04:17:53;8.90;;;4.10;;
5173;SDS011;2606;50.934;6.934;2022-09-29T04:20:19;7.20;;;3.70;;
5173;SDS011;2606;50.934;6.934;2022-09-29T04:22:44;10.43;;;3.60;;
5173;SDS011;2606;50.934;6.934;2022-09-29T04:25:10;6.23;;;3.70;;
5173;SDS011;2606;50.934;6.934;2022-09-29T04:27:36;7.17;;;3.70;;
5173;SDS011;2606;50.934;6.934;2022-09-29T04:30:01;5.13;;;3.90;;
5173;SDS011;2606;50.934;6.934;2022-09-29T04:32:28;4.33;;;3.37;;
5173;SDS011;2606;50.934;6.934;2022-09-29T04:34:53;3.80;;;3.30;;
5173;SDS011;2606;50.934;6.934;2022-09-29T04:37:19;4.27;;;3.17;;
5173;SDS011;2606;50.934;6.934;2022-09-29T04:39:44;4.87;;;3.33;;
5173;SDS011;2606;50.934;6.934;2022-09-29T04:42:10;5.20;;;3.50;;
5173;SDS011;2606;50.934;6.934;2022-09-29T04:44:35;4.83;;;3.47;;
5173;SDS011;2606;50.934;6.934;2022-09-29T04:47:01;4.47;;;3.17;;
5173;SDS011;2606;50.934;6.934;2022-09-29T04:49:26;7.90;;;4.20;;
5173;SDS011;2606;50.934;6.934;2022-09-29T04:51:52;7.33;;;4.10;;
5173;SDS011;2606;50.934;6.934;2022-09-29T04:54:17;7.33;;;3.70;;
5173;SDS011;2606;50.934;6.934;2022-09-29T04:56:43;7.73;;;3.60;;
5173;SDS011;2606;50.934;6.934;2022-09-29T04:59:09;5.70;;;3.80;;
5173;SDS011;2606;50.934;6.934;2022-09-29T05:01:35;4.50;;;3.10;;
5173;SDS011;2606;50.934;6.934;2022-09-29T05:04:00;6.70;;;4.40;;
5173;SDS011;2606;50.934;6.934;2022-09-29T05:06:26;6.10;;;4.07;;
5173;SDS011;2606;50.934;6.934;2022-09-29T05:08:52;11.80;;;4.70;;
5173;SDS011;2606;50.934;6.934;2022-09-29T05:11:18;7.10;;;4.57;;
5173;SDS011;2606;50.934;6.934;2022-09-29T05:13:47;7.43;;;4.83;;
5173;SDS011;2606;50.934;6.934;2022-09-29T05:16:14;10.53;;;4.73;;
5173;SDS011;2606;50.934;6.934;2022-09-29T05:18:40;6.60;;;4.60;;
5173;SDS011;2606;50.934;6.934;2022-09-29T05:21:06;9.20;;;5.60;;
5173;SDS011;2606;50.934;6.934;2022-09-29T05:23:33;8.70;;;5.23;;
5173;SDS011;2606;50.934;6.934;2022-09-29T05:26:00;7.93;;;4.93;;
5173;SDS011;2606;50.934;6.934;2022-09-29T05:28:26;8.67;;;5.40;;
5173;SDS011;2606;50.934;6.934;2022-09-29T05:30:52;9.60;;;5.40;;
5173;SDS011;2606;50.934;6.934;2022-09-29T05:33:17;13.60;;;6.20;;
5173;SDS011;2606;50.934;6.934;2022-09-29T05:35:43;10.70;;;6.20;;
5173;SDS011;2606;50.934;6.934;2022-09-29T05:38:08;13.63;;;7.00;;
5173;SDS011;2606;50.934;6.934;2022-09-29T05:40:34;10.20;;;5.80;;
5173;SDS011;2606;50.934;6.934;2022-09-29T05:43:01;11.90;;;6.10;;
5173;SDS011;2606;50.934;6.934;2022-09-29T05:45:27;12.37;;;6.80;;
5173;SDS011;2606;50.934;6.934;2022-09-29T05:47:53;13.50;;;7.03;;
5173;SDS011;2606;50.934;6.934;2022-09-29T05:50:18;20.93;;;6.57;;
5173;SDS011;2606;50.934;6.934;2022-09-29T05:52:44;11.70;;;6.40;;
5173;SDS011;2606;50.934;6.934;2022-09-29T05:55:13;13.80;;;7.13;;
5173;SDS011;2606;50.934;6.934;2022-09-29T05:57:39;16.80;;;8.27;;
5173;SDS011;2606;50.934;6.934;2022-09-29T06:00:05;14.13;;;6.90;;
5173;SDS011;2606;50.934;6.934;2022-09-29T06:02:33;12.97;;;6.50;;
5173;SDS011;2606;50.934;6.934;2022-09-29T06:04:58;14.90;;;6.70;;
5173;SDS011;2606;50.934;6.934;2022-09-29T06:07:24;12.90;;;6.40;;
5173;SDS011;2606;50.934;6.934;2022-09-29T06:09:50;15.63;;;8.30;;
5173;SDS011;2606;50.934;6.934;2022-09-29T06:12:15;14.27;;;6.60;;
5173;SDS011;2606;50.934;6.934;2022-09-29T06:14:41;10.80;;;6.37;;
5173;SDS011;2606;50.934;6.934;2022-09-29T06:17:07;13.00;;;6.83;;
5173;SDS011;2606;50.934;6.934;2022-09-29T06:19:32;11.13;;;6.33;;
5173;SDS011;2606;50.934;6.934;2022-09-29T06:21:58;15.57;;;6.70;;
5173;SDS011;2606;50.934;6.934;2022-09-29T06:24:23;13.17;;;6.80;;
5173;SDS011;2606;50.934;6.934;2022-09-29T06:26:49;12.80;;;6.70;;
5173;SDS011;2606;50.934;6.934;2022-09-29T06:29:14;13.13;;;6.90;;
5173;SDS011;2606;50.934;6.934;2022-09-29T06:31:40;12.20;;;6.83;;
5173;SDS011;2606;50.934;6.934;2022-09-29T06:34:05;15.63;;;7.40;;
5173;SDS011;2606;50.934;6.934;2022-09-29T06:36:35;14.23;;;7.63;;
5173;SDS011;2606;50.934;6.934;2022-09-29T06:39:23;16.57;;;7.73;;
5173;SDS011;2606;50.934;6.934;2022-09-29T06:41:49;14.07;;;6.20;;
5173;SDS011;2606;50.934;6.934;2022-09-29T06:44:20;13.47;;;6.80;;
5173;SDS011;2606;50.934;6.934;2022-09-29T06:46:48;14.40;;;8.00;;
5173;SDS011;2606;50.934;6.934;2022-09-29T06:49:15;13.83;;;7.20;;
5173;SDS011;2606;50.934;6.934;2022-09-29T06:51:41;16.10;;;6.70;;
5173;SDS011;2606;50.934;6.934;2022-09-29T06:54:08;19.13;;;7.27;;
5173;SDS011;2606;50.934;6.934;2022-09-29T06:56:34;14.10;;;8.07;;
5173;SDS011;2606;50.934;6.934;2022-09-29T06:59:00;16.73;;;7.27;;
5173;SDS011;2606;50.934;6.934;2022-09-29T07:01:25;17.23;;;8.47;;
5173;SDS011;2606;50.934;6.934;2022-09-29T07:03:51;18.50;;;8.10;;
5173;SDS011;2606;50.934;6.934;2022-09-29T07:06:16;12.70;;;6.83;;
5173;SDS011;2606;50.934;6.934;2022-09-29T07:08:42;15.13;;;7.97;;
5173;SDS011;2606;50.934;6.934;2022-09-29T07:11:08;16.97;;;8.00;;
5173;SDS011;2606;50.934;6.934;2022-09-29T07:13:34;14.97;;;8.97;;
5173;SDS011;2606;50.934;6.934;2022-09-29T07:16:07;28.63;;;10.20;;
5173;SDS011;2606;50.934;6.934;2022-09-29T07:18:35;16.58;;;9.13;;
5173;SDS011;2606;50.934;6.934;2022-09-29T07:21:02;15.10;;;7.47;;
5173;SDS011;2606;50.934;6.934;2022-09-29T07:23:29;16.90;;;8.07;;
5173;SDS011;2606;50.934;6.934;2022-09-29T07:25:54;19.53;;;9.37;;
5173;SDS011;2606;50.934;6.934;2022-09-29T07:28:20;20.17;;;11.20;;
5173;SDS011;2606;50.934;6.934;2022-09-29T07:30:46;17.90;;;9.50;;
5173;SDS011;2606;50.934;6.934;2022-09-29T07:33:11;20.37;;;9.40;;
5173;SDS011;2606;50.934;6.934;2022-09-29T07:35:37;30.73;;;11.90;;
5173;SDS011;2606;50.934;6.934;2022-09-29T07:38:02;21.87;;;11.07;;
5173;SDS011;2606;50.934;6.934;2022-09-29T07:40:28;21.30;;;11.30;;
5173;SDS011;2606;50.934;6.934;2022-09-29T07:42:54;21.50;;;10.17;;
5173;SDS011;2606;50.934;6.934;2022-09-29T07:45:20;18.67;;;9.97;;
5173;SDS011;2606;50.934;6.934;2022-09-29T07:47:46;22.73;;;11.90;;
5173;SDS011;2606;50.934;6.934;2022-09-29T07:50:11;22.20;;;10.90;;
5173;SDS011;2606;50.934;6.934;2022-09-29T07:52:37;17.23;;;10.37;;
5173;SDS011;2606;50.934;6.934;2022-09-29T07:55:03;17.67;;;10.77;;
5173;SDS011;2606;50.934;6.934;2022-09-29T07:57:29;20.83;;;11.40;;
5173;SDS011;2606;50.934;6.934;2022-09-29T07:59:55;23.13;;;12.47;;
5173;SDS011;2606;50.934;6.934;2022-09-29T08:02:22;23.67;;;13.77;;
5173;SDS011;2606;50.934;6.934;2022-09-29T08:04:49;20.90;;;11.10;;
5173;SDS011;2606;50.934;6.934;2022-09-29T08:07:14;25.20;;;13.03;;
5173;SDS011;2606;50.934;6.934;2022-09-29T08:09:40;23.27;;;12.57;;
5173;SDS011;2606;50.934;6.934;2022-09-29T08:12:05;23.93;;;11.50;;
5173;SDS011;2606;50.934;6.934;2022-09-29T08:14:32;27.17;;;13.20;;
5173;SDS011;2606;50.934;6.934;2022-09-29T08:16:58;26.63;;;12.40;;
5173;SDS011;2606;50.934;6.934;2022-09-29T08:19:24;26.50;;;12.63;;
5173;SDS011;2606;50.934;6.934;2022-09-29T08:21:51;22.73;;;11.97;;
5173;SDS011;2606;50.934;6.934;2022-09-29T08:24:17;24.17;;;12.10;;
5173;SDS011;2606;50.934;6.934;2022-09-29T08:26:42;21.80;;;11.70;;
5173;SDS011;2606;50.934;6.934;2022-09-29T08:29:08;22.83;;;11.77;;
5173;SDS011;2606;50.934;6.934;2022-09-29T08:31:35;21.27;;;11.30;;
5173;SDS011;2606;50.934;6.934;2022-09-29T08:34:04;31.73;;;12.77;;
5173;SDS011;2606;50.934;6.934;2022-09-29T08:36:30;39.73;;;17.27;;
5173;SDS011;2606;50.934;6.934;2022-09-29T08:38:56;32.53;;;14.37;;
5173;SDS011;2606;50.934;6.934;2022-09-29T08:46:44;28.03;;;12.60;;
5173;SDS011;2606;50.934;6.934;2022-09-29T08:51:56;33.67;;;13.97;;
5173;SDS011;2606;50.934;6.934;2022-09-29T08:54:35;25.60;;;11.97;;
5173;SDS011;2606;50.934;6.934;2022-09-29T08:57:05;27.20;;;13.13;;
5173;SDS011;2606;50.934;6.934;2022-09-29T08:59:39;21.70;;;12.60;;
5173;SDS011;2606;50.934;6.934;2022-09-29T09:05:34;30.97;;;15.67;;
5173;SDS011;2606;50.934;6.934;2022-09-29T09:10:47;23.13;;;11.80;;
5173;SDS011;2606;50.934;6.934;2022-09-29T09:13:32;28.13;;;12.00;;
5173;SDS011;2606;50.934;6.934;2022-09-29T09:18:57;23.17;;;11.30;;
5173;SDS011;2606;50.934;6.934;2022-09-29T09:22:07;19.43;;;10.07;;
5173;SDS011;2606;50.934;6.934;2022-09-29T09:24:55;21.90;;;10.77;;
5173;SDS011;2606;50.934;6.934;2022-09-29T09:27:42;25.90;;;11.70;;
5173;SDS011;2606;50.934;6.934;2022-09-29T09:30:14;28.37;;;12.37;;
5173;SDS011;2606;50.934;6.934;2022-09-29T09:32:52;25.20;;;13.40;;
5173;SDS011;2606;50.934;6.934;2022-09-29T09:38:27;18.17;;;11.47;;
5173;SDS011;2606;50.934;6.934;2022-09-29T09:41:12;17.03;;;9.70;;
5173;SDS011;2606;50.934;6.934;2022-09-29T09:43:41;16.90;;;9.70;;
5173;SDS011;2606;50.934;6.934;2022-09-29T09:46:19;17.90;;;9.63;;
5173;SDS011;2606;50.934;6.934;2022-09-29T09:49:00;20.30;;;10.00;;
5173;SDS011;2606;50.934;6.934;2022-09-29T09:54:18;16.23;;;9.13;;
5173;SDS011;2606;50.934;6.934;2022-09-29T09:57:08;17.93;;;10.10;;
5173;SDS011;2606;50.934;6.934;2022-09-29T10:00:00;18.43;;;9.53;;
5173;SDS011;2606;50.934;6.934;2022-09-29T10:02:44;19.77;;;10.13;;
5173;SDS011;2606;50.934;6.934;2022-09-29T10:05:14;16.40;;;8.10;;
5173;SDS011;2606;50.934;6.934;2022-09-29T10:08:00;14.00;;;8.17;;
5173;SDS011;2606;50.934;6.934;2022-09-29T10:10:33;12.30;;;8.20;;
5173;SDS011;2606;50.934;6.934;2022-09-29T10:13:17;14.63;;;8.90;;
5173;SDS011;2606;50.934;6.934;2022-09-29T10:19:20;13.00;;;8.47;;
5173;SDS011;2606;50.934;6.934;2022-09-29T10:22:14;12.00;;;7.60;;
5173;SDS011;2606;50.934;6.934;2022-09-29T10:25:04;10.60;;;6.87;;
5173;SDS011;2606;50.934;6.934;2022-09-29T10:28:11;10.77;;;7.67;;
5173;SDS011;2606;50.934;6.934;2022-09-29T10:30:44;14.60;;;6.90;;
5173;SDS011;2606;50.934;6.934;2022-09-29T10:33:22;8.13;;;5.47;;
5173;SDS011;2606;50.934;6.934;2022-09-29T10:35:50;11.40;;;6.17;;
5173;SDS011;2606;50.934;6.934;2022-09-29T10:38:29;7.13;;;5.17;;
5173;SDS011;2606;50.934;6.934;2022-09-29T10:41:03;7.30;;;5.23;;
5173;SDS011;2606;50.934;6.934;2022-09-29T10:49:23;8.10;;;5.17;;
5173;SDS011;2606;50.934;6.934;2022-09-29T10:51:58;11.80;;;4.80;;
5173;SDS011;2606;50.934;6.934;2022-09-29T10:54:25;11.73;;;4.90;;
5173;SDS011;2606;50.934;6.934;2022-09-29T10:56:53;7.97;;;4.80;;
5173;SDS011;2606;50.934;6.934;2022-09-29T10:59:21;6.03;;;4.33;;
5173;SDS011;2606;50.934;6.934;2022-09-29T11:01:53;5.83;;;4.10;;
5173;SDS011;2606;50.934;6.934;2022-09-29T11:07:04;10.40;;;4.23;;
5173;SDS011;2606;50.934;6.934;2022-09-29T11:09:35;12.27;;;4.70;;
5173;SDS011;2606;50.934;6.934;2022-09-29T11:12:03;6.37;;;3.83;;
5173;SDS011;2606;50.934;6.934;2022-09-29T11:17:01;7.20;;;5.03;;
5173;SDS011;2606;50.934;6.934;2022-09-29T11:19:47;6.60;;;4.20;;
5173;SDS011;2606;50.934;6.934;2022-09-29T11:30:37;4.23;;;2.87;;
5173;SDS011;2606;50.934;6.934;2022-09-29T11:36:08;4.70;;;3.30;;
5173;SDS011;2606;50.934;6.934;2022-09-29T11:41:59;6.10;;;3.83;;
5173;SDS011;2606;50.934;6.934;2022-09-29T11:44:35;2.73;;;2.50;;
5173;SDS011;2606;50.934;6.934;2022-09-29T11:47:30;14.63;;;7.03;;
5173;SDS011;2606;50.934;6.934;2022-09-29T11:50:18;4.90;;;3.13;;
5173;SDS011;2606;50.934;6.934;2022-09-29T12:04:38;8.03;;;2.10;;
5173;SDS011;2606;50.934;6.934;2022-09-29T12:10:14;2.60;;;2.10;;
5173;SDS011;2606;50.934;6.934;2022-09-29T12:18:24;7.67;;;2.67;;
5173;SDS011;2606;50.934;6.934;2022-09-29T12:20:59;2.37;;;2.10;;
5173;SDS011;2606;50.934;6.934;2022-09-29T12:23:27;3.30;;;2.20;;
5173;SDS011;2606;50.934;6.934;2022-09-29T12:25:56;3.53;;;2.20;;
5173;SDS011;2606;50.934;6.934;2022-09-29T12:28:53;2.27;;;2.07;;
5173;SDS011;2606;50.934;6.934;2022-09-29T12:31:25;4.77;;;2.50;;
5173;SDS011;2606;50.934;6.934;2022-09-29T12:33:56;7.07;;;2.60;;
5173;SDS011;2606;50.934;6.934;2022-09-29T12:36:41;5.40;;;2.57;;
5173;SDS011;2606;50.934;6.934;2022-09-29T12:39:32;6.70;;;2.30;;
5173;SDS011;2606;50.934;6.934;2022-09-29T12:42:07;4.17;;;2.17;;
5173;SDS011;2606;50.934;6.934;2022-09-29T12:50:41;1.87;;;1.70;;
5173;SDS011;2606;50.934;6.934;2022-09-29T12:55:59;4.90;;;2.10;;
5173;SDS011;2606;50.934;6.934;2022-09-29T12:58:32;2.50;;;2.30;;
5173;SDS011;2606;50.934;6.934;2022-09-29T13:04:36;5.07;;;1.93;;
5173;SDS011;2606;50.934;6.934;2022-09-29T13:07:03;4.13;;;2.53;;
5173;SDS011;2606;50.934;6.934;2022-09-29T13:12:26;3.87;;;2.10;;
5173;SDS011;2606;50.934;6.934;2022-09-29T13:29:31;3.93;;;2.30;;
5173;SDS011;2606;50.934;6.934;2022-09-29T13:38:35;4.00;;;2.13;;
5173;SDS011;2606;50.934;6.934;2022-09-29T13:41:16;6.70;;;2.80;;
5173;SDS011;2606;50.934;6.934;2022-09-29T13:56:46;3.37;;;2.30;;
5173;SDS011;2606;50.934;6.934;2022-09-29T13:59:35;5.03;;;2.63;;
5173;SDS011;2606;50.934;6.934;2022-09-29T14:02:16;3.47;;;2.30;;
5173;SDS011;2606;50.934;6.934;2022-09-29T14:05:02;4.80;;;2.70;;
5173;SDS011;2606;50.934;6.934;2022-09-29T14:12:58;5.77;;;2.83;;
5173;SDS011;2606;50.934;6.934;2022-09-29T14:15:38;5.20;;;3.00;;
5173;SDS011;2606;50.934;6.934;2022-09-29T14:20:58;4.93;;;2.70;;
5173;SDS011;2606;50.934;6.934;2022-09-29T14:29:12;4.00;;;3.07;;
5173;SDS011;2606;50.934;6.934;2022-09-29T14:31:47;4.00;;;2.23;;
5173;SDS011;2606;50.934;6.934;2022-09-29T14:34:16;3.60;;;2.30;;
5173;SDS011;2606;50.934;6.934;2022-09-29T14:36:45;4.27;;;2.70;;
5173;SDS011;2606;50.934;6.934;2022-09-29T14:39:12;8.27;;;3.30;;
5173;SDS011;2606;50.934;6.934;2022-09-29T14:41:43;8.37;;;2.80;;
5173;SDS011;2606;50.934;6.934;2022-09-29T14:47:23;6.60;;;3.00;;
5173;SDS011;2606;50.934;6.934;2022-09-29T14:59:04;9.80;;;3.20;;
5173;SDS011;2606;50.934;6.934;2022-09-29T15:01:31;5.90;;;2.97;;
5173;SDS011;2606;50.934;6.934;2022-09-29T15:04:05;3.30;;;2.43;;
5173;SDS011;2606;50.934;6.934;2022-09-29T15:06:31;5.47;;;3.60;;
5173;SDS011;2606;50.934;6.934;2022-09-29T15:09:43;5.87;;;2.93;;
5173;SDS011;2606;50.934;6.934;2022-09-29T15:11:47;5.87;;;2.63;;
5173;SDS011;2606;50.934;6.934;2022-09-29T15:19:43;5.00;;;2.70;;
5173;SDS011;2606;50.934;6.934;2022-09-29T15:27:52;6.13;;;2.53;;
5173;SDS011;2606;50.934;6.934;2022-09-29T15:30:19;3.47;;;2.50;;
5173;SDS011;2606;50.934;6.934;2022-09-29T15:32:47;5.80;;;2.43;;
5173;SDS011;2606;50.934;6.934;2022-09-29T15:35:18;6.33;;;2.93;;
5173;SDS011;2606;50.934;6.934;2022-09-29T15:40:20;7.90;;;2.50;;
5173;SDS011;2606;50.934;6.934;2022-09-29T15:42:48;6.80;;;2.57;;
5173;SDS011;2606;50.934;6.934;2022-09-29T15:45:18;4.80;;;2.83;;
5173;SDS011;2606;50.934;6.934;2022-09-29T15:47:59;4.50;;;2.73;;
5173;SDS011;2606;50.934;6.934;2022-09-29T15:50:30;7.40;;;2.93;;
5173;SDS011;2606;50.934;6.934;2022-09-29T15:52:59;5.03;;;1.90;;
5173;SDS011;2606;50.934;6.934;2022-09-29T15:55:26;2.07;;;1.53;;
5173;SDS011;2606;50.934;6.934;2022-09-29T15:57:54;6.33;;;2.27;;
5173;SDS011;2606;50.934;6.934;2022-09-29T16:05:16;3.67;;;2.30;;
5173;SDS011;2606;50.934;6.934;2022-09-29T16:07:49;5.17;;;1.97;;
5173;SDS011;2606;50.934;6.934;2022-09-29T16:10:22;4.20;;;1.93;;
5173;SDS011;2606;50.934;6.934;2022-09-29T16:12:53;9.33;;;2.40;;
5173;SDS011;2606;50.934;6.934;2022-09-29T16:15:32;2.33;;;1.50;;
5173;SDS011;2606;50.934;6.934;2022-09-29T16:18:01;4.67;;;1.77;;
5173;SDS011;2606;50.934;6.934;2022-09-29T16:20:32;4.50;;;2.07;;
5173;SDS011;2606;50.934;6.934;2022-09-29T16:23:05;5.77;;;1.90;;
5173;SDS011;2606;50.934;6.934;2022-09-29T16:25:33;6.23;;;3.47;;
5173;SDS011;2606;50.934;6.934;2022-09-29T16:28:02;2.83;;;1.60;;
5173;SDS011;2606;50.934;6.934;2022-09-29T16:30:34;6.60;;;2.20;;
5173;SDS011;2606;50.934;6.934;2022-09-29T16:38:13;7.20;;;1.87;;
5173;SDS011;2606;50.934;6.934;2022-09-29T16:40:47;6.00;;;1.80;;
5173;SDS011;2606;50.934;6.934;2022-09-29T16:43:19;2.70;;;1.97;;
5173;SDS011;2606;50.934;6.934;2022-09-29T16:45:59;3.47;;;1.87;;
5173;SDS011;2606;50.934;6.934;2022-09-29T16:48:27;5.73;;;2.30;;
5173;SDS011;2606;50.934;6.934;2022-09-29T16:50:55;3.17;;;1.73;;
5173;SDS011;2606;50.934;6.934;2022-09-29T16:53:31;2.67;;;1.80;;
5173;SDS011;2606;50.934;6.934;2022-09-29T16:56:02;4.90;;;3.07;;
5173;SDS011;2606;50.934;6.934;2022-09-29T16:58:43;6.00;;;2.90;;
5173;SDS011;2606;50.934;6.934;2022-09-29T17:01:25;3.73;;;2.23;;
5173;SDS011;2606;50.934;6.934;2022-09-29T17:03:50;3.60;;;2.43;;
5173;SDS011;2606;50.934;6.934;2022-09-29T17:06:31;5.18;;;2.60;;
5173;SDS011;2606;50.934;6.934;2022-09-29T17:12:11;8.80;;;3.27;;
5173;SDS011;2606;50.934;6.934;2022-09-29T17:14:57;5.80;;;3.00;;
5173;SDS011;2606;50.934;6.934;2022-09-29T17:18:11;8.27;;;3.37;;
5173;SDS011;2606;50.934;6.934;2022-09-29T17:20:43;4.77;;;3.43;;
5173;SDS011;2606;50.934;6.934;2022-09-29T17:23:22;5.60;;;2.93;;
5173;SDS011;2606;50.934;6.934;2022-09-29T17:36:42;10.13;;;4.10;;
5173;SDS011;2606;50.934;6.934;2022-09-29T17:39:14;9.30;;;4.90;;
5173;SDS011;2606;50.934;6.934;2022-09-29T17:42:00;10.37;;;5.87;;
5173;SDS011;2606;50.934;6.934;2022-09-29T17:44:38;14.07;;;5.60;;
5173;SDS011;2606;50.934;6.934;2022-09-29T17:50:34;10.47;;;4.93;;
5173;SDS011;2606;50.934;6.934;2022-09-29T17:53:09;14.47;;;6.20;;
5173;SDS011;2606;50.934;6.934;2022-09-29T18:02:51;8.00;;;4.30;;
5173;SDS011;2606;50.934;6.934;2022-09-29T18:05:47;8.13;;;4.60;;
5173;SDS011;2606;50.934;6.934;2022-09-29T18:08:19;8.73;;;3.83;;
5173;SDS011;2606;50.934;6.934;2022-09-29T18:10:50;13.20;;;4.20;;
5173;SDS011;2606;50.934;6.934;2022-09-29T18:13:29;7.63;;;4.17;;
5173;SDS011;2606;50.934;6.934;2022-09-29T18:15:58;6.17;;;3.33;;
5173;SDS011;2606;50.934;6.934;2022-09-29T18:18:27;5.97;;;3.50;;
5173;SDS011;2606;50.934;6.934;2022-09-29T18:20:53;6.90;;;3.80;;
5173;SDS011;2606;50.934;6.934;2022-09-29T18:23:19;8.10;;;4.30;;
5173;SDS011;2606;50.934;6.934;2022-09-29T18:25:47;7.67;;;3.70;;
5173;SDS011;2606;50.934;6.934;2022-09-29T18:28:15;9.93;;;4.70;;
5173;SDS011;2606;50.934;6.934;2022-09-29T18:30:42;9.33;;;4.27;;
5173;SDS011;2606;50.934;6.934;2022-09-29T18:33:11;6.63;;;3.97;;
5173;SDS011;2606;50.934;6.934;2022-09-29T18:35:44;7.03;;;4.40;;
5173;SDS011;2606;50.934;6.934;2022-09-29T18:38:17;8.80;;;4.70;;
5173;SDS011;2606;50.934;6.934;2022-09-29T18:40:43;14.53;;;5.30;;
5173;SDS011;2606;50.934;6.934;2022-09-29T18:43:14;8.00;;;5.10;;
5173;SDS011;2606;50.934;6.934;2022-09-29T18:45:40;18.13;;;7.27;;
5173;SDS011;2606;50.934;6.934;2022-09-29T18:48:09;8.37;;;5.67;;
5173;SDS011;2606;50.934;6.934;2022-09-29T18:50:40;9.40;;;5.57;;
5173;SDS011;2606;50.934;6.934;2022-09-29T18:53:10;12.17;;;6.80;;
5173;SDS011;2606;50.934;6.934;2022-09-29T18:55:40;10.87;;;6.17;;
5173;SDS011;2606;50.934;6.934;2022-09-29T18:58:08;18.53;;;6.00;;
5173;SDS011;2606;50.934;6.934;2022-09-29T19:00:40;11.30;;;5.67;;
5173;SDS011;2606;50.934;6.934;2022-09-29T19:03:11;9.00;;;5.23;;
5173;SDS011;2606;50.934;6.934;2022-09-29T19:05:39;13.20;;;4.90;;
5173;SDS011;2606;50.934;6.934;2022-09-29T19:08:06;10.97;;;5.37;;
5173;SDS011;2606;50.934;6.934;2022-09-29T19:10:33;10.87;;;5.33;;
5173;SDS011;2606;50.934;6.934;2022-09-29T19:13:03;9.63;;;5.23;;
5173;SDS011;2606;50.934;6.934;2022-09-29T19:15:32;15.40;;;6.07;;